createdAt,value
2017-05-21T00:00:56.249Z,23.64
2017-05-21T00:02:06.497Z,23.66
2017-05-21T00:03:16.535Z,23.67
2017-05-21T00:04:26.824Z,23.56
2017-05-21T00:05:37.164Z,23.58
2017-05-21T00:06:47.148Z,23.58
2017-05-21T00:07:57.682Z,23.64
2017-05-21T00:09:07.965Z,23.62
2017-05-21T00:10:18.249Z,23.56
2017-05-21T00:11:28.526Z,23.56
2017-05-21T00:12:38.869Z,23.63
2017-05-21T00:13:49.414Z,23.54
2017-05-21T00:14:59.692Z,23.58
2017-05-21T00:16:09.970Z,23.56
2017-05-21T00:17:20.257Z,23.59
2017-05-21T00:18:30.566Z,23.58
2017-05-21T00:19:41.133Z,23.56
2017-05-21T00:20:51.207Z,23.58
2017-05-21T00:22:01.559Z,23.54
2017-05-21T00:23:11.843Z,23.64
2017-05-21T00:24:22.435Z,23.62
2017-05-21T00:25:32.980Z,23.62
2017-05-21T00:26:42.948Z,23.55
2017-05-21T00:27:53.244Z,23.66
2017-05-21T00:29:03.209Z,23.55
2017-05-21T00:30:13.494Z,23.54
2017-05-21T00:31:23.403Z,23.52
2017-05-21T00:32:33.374Z,23.58
2017-05-21T00:33:43.663Z,23.58
2017-05-21T00:34:53.632Z,23.52
2017-05-21T00:36:03.917Z,23.55
2017-05-21T00:37:14.146Z,23.55
2017-05-21T00:38:24.430Z,23.52
2017-05-21T00:39:34.709Z,23.49
2017-05-21T00:40:44.693Z,23.51
2017-05-21T00:41:54.966Z,23.52
2017-05-21T00:43:05.497Z,23.49
2017-05-21T00:44:15.470Z,23.55
2017-05-21T00:45:25.544Z,23.52
2017-05-21T00:46:35.521Z,23.55
2017-05-21T00:47:45.492Z,23.44
2017-05-21T00:48:56.077Z,23.58
2017-05-21T00:50:06.362Z,23.52
2017-05-21T00:51:16.640Z,23.48
2017-05-21T00:52:26.608Z,23.54
2017-05-21T00:53:36.584Z,23.45
2017-05-21T00:54:46.808Z,23.51
2017-05-21T00:55:56.775Z,23.47
2017-05-21T00:57:07.065Z,23.48
2017-05-21T00:58:17.345Z,23.48
2017-05-21T00:59:27.374Z,23.45
2017-05-21T01:00:37.907Z,23.52
2017-05-21T01:01:48.179Z,23.4
2017-05-21T01:02:57.833Z,23.52
2017-05-21T01:04:08.112Z,23.44
2017-05-21T01:05:18.398Z,23.44
2017-05-21T01:06:28.921Z,23.45
2017-05-21T01:07:39.363Z,23.52
2017-05-21T01:08:49.338Z,23.49
2017-05-21T01:09:59.007Z,23.49
2017-05-21T01:11:09.289Z,23.48
2017-05-21T01:12:19.810Z,23.52
2017-05-21T01:13:29.773Z,23.44
2017-05-21T01:14:40.056Z,23.47
2017-05-21T01:15:50.345Z,23.51
2017-05-21T01:17:00.616Z,23.51
2017-05-21T01:18:11.154Z,23.44
2017-05-21T01:19:21.439Z,23.42
2017-05-21T01:20:31.721Z,23.44
2017-05-21T01:21:42.008Z,23.42
2017-05-21T01:22:52.303Z,23.42
2017-05-21T01:24:02.827Z,23.48
2017-05-21T01:25:13.102Z,23.42
2017-05-21T01:26:23.489Z,23.4
2017-05-21T01:27:33.766Z,23.52
2017-05-21T01:28:43.748Z,23.42
2017-05-21T01:29:54.278Z,23.36
2017-05-21T01:31:04.573Z,23.42
2017-05-21T01:32:14.859Z,23.39
2017-05-21T01:33:25.141Z,23.51
2017-05-21T01:34:35.114Z,23.42
2017-05-21T01:35:45.644Z,23.52
2017-05-21T01:36:55.920Z,23.36
2017-05-21T01:38:06.207Z,23.32
2017-05-21T01:39:16.182Z,23.45
2017-05-21T01:40:26.482Z,23.42
2017-05-21T01:41:37.014Z,23.48
2017-05-21T01:42:46.984Z,23.33
2017-05-21T01:43:57.525Z,23.34
2017-05-21T01:45:07.805Z,23.48
2017-05-21T01:46:18.089Z,23.33
2017-05-21T01:47:28.317Z,23.36
2017-05-21T01:48:38.278Z,23.32
2017-05-21T01:49:48.264Z,23.34
2017-05-21T01:50:58.543Z,23.34
2017-05-21T01:52:08.831Z,23.47
2017-05-21T01:53:19.053Z,23.37
2017-05-21T01:54:29.333Z,23.49
2017-05-21T01:55:39.612Z,23.37
2017-05-21T01:56:49.890Z,23.32
2017-05-21T01:58:00.181Z,23.37
2017-05-21T01:59:10.719Z,23.28
2017-05-21T02:00:21.000Z,23.44
2017-05-21T02:01:31.282Z,23.37
2017-05-21T02:02:41.265Z,23.37
2017-05-21T02:03:51.240Z,23.4
2017-05-21T02:05:01.772Z,23.44
2017-05-21T02:06:12.052Z,23.47
2017-05-21T02:07:22.331Z,23.28
2017-05-21T02:08:32.613Z,23.34
2017-05-21T02:09:42.895Z,23.33
2017-05-21T02:10:53.109Z,23.29
2017-05-21T02:12:03.388Z,23.34
2017-05-21T02:13:13.047Z,23.29
2017-05-21T02:14:23.346Z,23.28
2017-05-21T02:15:33.317Z,23.23
2017-05-21T02:16:43.843Z,23.34
2017-05-21T02:17:53.815Z,23.29
2017-05-21T02:19:03.789Z,23.33
2017-05-21T02:20:12.825Z,23.36
2017-05-21T02:21:23.114Z,23.33
2017-05-21T02:22:33.021Z,23.36
2017-05-21T02:23:42.983Z,23.28
2017-05-21T02:24:53.278Z,23.36
2017-05-21T02:26:03.565Z,23.36
2017-05-21T02:27:13.840Z,23.25
2017-05-21T02:28:24.365Z,23.26
2017-05-21T02:29:34.953Z,23.36
2017-05-21T02:30:45.239Z,23.36
2017-05-21T02:31:55.219Z,23.34
2017-05-21T02:33:05.185Z,23.34
2017-05-21T02:34:15.724Z,23.36
2017-05-21T02:35:26.005Z,23.33
2017-05-21T02:36:35.983Z,23.36
2017-05-21T02:37:46.258Z,23.34
2017-05-21T02:38:56.222Z,23.32
2017-05-21T02:40:06.748Z,23.33
2017-05-21T02:41:17.027Z,23.25
2017-05-21T02:42:26.992Z,23.28
2017-05-21T02:43:37.279Z,23.33
2017-05-21T02:44:47.551Z,23.21
2017-05-21T02:45:57.774Z,23.34
2017-05-21T02:47:07.421Z,23.28
2017-05-21T02:48:17.705Z,23.29
2017-05-21T02:49:27.990Z,23.29
2017-05-21T02:50:37.958Z,23.25
2017-05-21T02:51:48.488Z,23.33
2017-05-21T02:52:58.777Z,23.33
2017-05-21T02:54:09.061Z,23.32
2017-05-21T02:55:19.352Z,23.29
2017-05-21T02:56:29.637Z,23.34
2017-05-21T02:57:40.175Z,23.21
2017-05-21T02:58:50.151Z,23.16
2017-05-21T03:00:00.440Z,23.25
2017-05-21T03:01:10.412Z,23.26
2017-05-21T03:02:20.696Z,23.32
2017-05-21T03:03:31.228Z,23.26
2017-05-21T03:04:41.196Z,23.2
2017-05-21T03:05:51.177Z,23.32
2017-05-21T03:07:01.156Z,23.26
2017-05-21T03:08:11.127Z,23.26
2017-05-21T03:09:21.353Z,23.25
2017-05-21T03:10:31.642Z,23.26
2017-05-21T03:11:41.626Z,23.21
2017-05-21T03:12:51.920Z,23.21
2017-05-21T03:14:02.208Z,23.21
2017-05-21T03:15:12.729Z,23.25
2017-05-21T03:16:23.014Z,23.23
2017-05-21T03:17:33.298Z,23.32
2017-05-21T03:18:43.583Z,23.34
2017-05-21T03:19:53.867Z,23.25
2017-05-21T03:21:04.461Z,23.2
2017-05-21T03:22:14.127Z,23.26
2017-05-21T03:23:24.160Z,23.21
2017-05-21T03:24:34.444Z,23.21
2017-05-21T03:25:44.099Z,23.25
2017-05-21T03:26:54.319Z,23.2
2017-05-21T03:28:04.594Z,23.23
2017-05-21T03:29:14.877Z,23.25
2017-05-21T03:30:25.157Z,23.23
2017-05-21T03:31:34.820Z,23.32
2017-05-21T03:32:45.351Z,23.23
2017-05-21T03:33:55.329Z,23.21
2017-05-21T03:35:05.621Z,23.21
2017-05-21T03:36:15.901Z,23.25
2017-05-21T03:37:26.183Z,23.25
2017-05-21T03:38:36.718Z,23.21
2017-05-21T03:39:46.998Z,23.23
2017-05-21T03:40:56.980Z,23.26
2017-05-21T03:42:06.949Z,23.32
2017-05-21T03:43:17.238Z,23.21
2017-05-21T03:44:27.465Z,23.28
2017-05-21T03:45:37.439Z,23.26
2017-05-21T03:46:47.732Z,23.23
2017-05-21T03:47:58.013Z,23.21
2017-05-21T03:49:08.293Z,23.25
2017-05-21T03:50:18.829Z,23.25
2017-05-21T03:51:29.107Z,23.2
2017-05-21T03:52:39.085Z,23.21
2017-05-21T03:53:49.054Z,23.17
2017-05-21T03:54:59.329Z,23.18
2017-05-21T03:56:09.551Z,23.2
2017-05-21T03:57:19.836Z,23.2
2017-05-21T03:58:30.133Z,23.11
2017-05-21T03:59:40.423Z,23.18
2017-05-21T04:00:50.095Z,23.16
2017-05-21T04:02:00.668Z,23.28
2017-05-21T04:03:10.951Z,23.2
2017-05-21T04:04:21.244Z,23.16
2017-05-21T04:05:31.522Z,23.18
2017-05-21T04:06:41.488Z,23.14
2017-05-21T04:07:52.013Z,23.25
2017-05-21T04:09:01.989Z,23.17
2017-05-21T04:10:12.265Z,23.11
2017-05-21T04:11:22.546Z,23.2
2017-05-21T04:12:32.828Z,23.14
2017-05-21T04:13:43.355Z,23.2
2017-05-21T04:14:53.641Z,23.17
2017-05-21T04:16:03.615Z,23.21
2017-05-21T04:17:13.587Z,23.13
2017-05-21T04:18:23.865Z,23.2
2017-05-21T04:19:34.395Z,23.23
2017-05-21T04:20:44.363Z,23.26
2017-05-21T04:21:54.649Z,23.16
2017-05-21T04:23:04.927Z,23.13
2017-05-21T04:24:15.211Z,23.17
2017-05-21T04:25:25.749Z,23.18
2017-05-21T04:26:36.025Z,23.2
2017-05-21T04:27:46.307Z,23.21
2017-05-21T04:28:55.975Z,23.23
2017-05-21T04:30:06.284Z,23.23
2017-05-21T04:31:16.817Z,23.21
2017-05-21T04:32:27.094Z,23.26
2017-05-21T04:33:37.382Z,23.21
2017-05-21T04:34:47.381Z,23.32
2017-05-21T04:35:57.662Z,23.36
2017-05-21T04:37:07.888Z,23.28
2017-05-21T04:38:18.168Z,23.25
2017-05-21T04:39:28.460Z,23.26
2017-05-21T04:40:38.804Z,23.28
2017-05-21T04:41:49.084Z,23.29
2017-05-21T04:42:59.313Z,23.28
2017-05-21T04:44:09.590Z,23.32
2017-05-21T04:45:19.863Z,23.28
2017-05-21T04:46:29.844Z,23.32
2017-05-21T04:47:39.820Z,23.36
2017-05-21T04:48:50.047Z,23.37
2017-05-21T04:50:00.324Z,23.45
2017-05-21T04:51:10.298Z,23.33
2017-05-21T04:52:20.332Z,23.37
2017-05-21T04:53:30.305Z,23.37
2017-05-21T04:54:40.841Z,23.49
2017-05-21T04:55:50.815Z,23.45
2017-05-21T04:57:01.093Z,23.48
2017-05-21T04:58:11.382Z,23.47
2017-05-21T04:59:21.673Z,23.45
2017-05-21T05:00:31.891Z,23.44
2017-05-21T05:01:41.854Z,23.51
2017-05-21T05:02:52.146Z,23.44
2017-05-21T05:04:02.121Z,23.45
2017-05-21T05:05:12.405Z,23.55
2017-05-21T05:06:22.314Z,23.52
2017-05-21T05:07:32.603Z,23.48
2017-05-21T05:08:42.577Z,23.48
2017-05-21T05:09:52.858Z,23.48
2017-05-21T05:11:03.138Z,23.59
2017-05-21T05:12:13.667Z,23.51
2017-05-21T05:13:23.945Z,23.56
2017-05-21T05:14:34.227Z,23.58
2017-05-21T05:15:44.186Z,23.49
2017-05-21T05:16:53.839Z,23.62
2017-05-21T05:18:04.376Z,23.59
2017-05-21T05:19:14.349Z,23.59
2017-05-21T05:20:24.639Z,23.63
2017-05-21T05:21:34.924Z,23.62
2017-05-21T05:22:45.202Z,23.55
2017-05-21T05:23:55.427Z,23.66
2017-05-21T05:25:05.718Z,23.63
2017-05-21T05:26:15.387Z,23.64
2017-05-21T05:27:25.669Z,23.7
2017-05-21T05:28:35.948Z,23.66
2017-05-21T05:29:46.482Z,23.7
2017-05-21T05:30:56.146Z,23.71
2017-05-21T05:32:06.439Z,23.7
2017-05-21T05:33:16.726Z,23.74
2017-05-21T05:34:27.013Z,23.74
2017-05-21T05:35:37.543Z,23.7
2017-05-21T05:36:47.825Z,23.79
2017-05-21T05:37:58.116Z,23.79
2017-05-21T05:39:08.408Z,23.85
2017-05-21T05:40:18.387Z,23.84
2017-05-21T05:41:28.918Z,23.86
2017-05-21T05:42:39.204Z,23.85
2017-05-21T05:43:49.495Z,23.88
2017-05-21T05:44:59.778Z,23.86
2017-05-21T05:46:10.059Z,23.91
2017-05-21T05:47:20.589Z,23.85
2017-05-21T05:48:30.804Z,23.91
2017-05-21T05:49:41.097Z,23.91
2017-05-21T05:50:51.394Z,23.95
2017-05-21T05:52:01.697Z,23.81
2017-05-21T05:53:12.240Z,23.96
2017-05-21T05:54:22.519Z,23.99
2017-05-21T05:55:32.831Z,23.95
2017-05-21T05:56:43.118Z,23.99
2017-05-21T05:57:53.414Z,24.03
2017-05-21T05:59:03.945Z,24.03
2017-05-21T06:00:13.617Z,24.01
2017-05-21T06:01:23.897Z,24.07
2017-05-21T06:02:34.180Z,24.07
2017-05-21T06:03:44.484Z,24.03
2017-05-21T06:04:55.072Z,24.06
2017-05-21T06:06:05.047Z,24.1
2017-05-21T06:07:14.715Z,24.06
2017-05-21T06:08:24.705Z,24.04
2017-05-21T06:09:34.686Z,24.09
2017-05-21T06:10:45.233Z,24.07
2017-05-21T06:11:55.524Z,24.07
2017-05-21T06:13:05.817Z,24.04
2017-05-21T06:14:16.106Z,24.13
2017-05-21T06:15:26.397Z,24.07
2017-05-21T06:16:36.624Z,24.09
2017-05-21T06:17:46.905Z,24.11
2017-05-21T06:18:56.885Z,24.14
2017-05-21T06:20:07.171Z,24.1
2017-05-21T06:21:17.138Z,24.18
2017-05-21T06:22:27.676Z,24.14
2017-05-21T06:23:37.658Z,24.14
2017-05-21T06:24:47.652Z,24.14
2017-05-21T06:25:57.620Z,24.19
2017-05-21T06:27:07.900Z,24.16
2017-05-21T06:28:18.136Z,24.13
2017-05-21T06:29:28.430Z,24.18
2017-05-21T06:30:38.714Z,24.16
2017-05-21T06:31:48.751Z,24.1
2017-05-21T06:32:58.739Z,24.19
2017-05-21T06:34:09.280Z,24.16
2017-05-21T06:35:19.558Z,24.1
2017-05-21T06:36:29.527Z,24.24
2017-05-21T06:37:39.194Z,24.19
2017-05-21T06:38:49.474Z,24.25
2017-05-21T06:39:59.713Z,24.16
2017-05-21T06:41:09.679Z,24.18
2017-05-21T06:42:19.665Z,24.16
2017-05-21T06:43:30.055Z,24.22
2017-05-21T06:44:40.091Z,24.1
2017-05-21T06:45:50.318Z,24.16
2017-05-21T06:47:00.292Z,24.18
2017-05-21T06:48:10.594Z,24.16
2017-05-21T06:49:20.892Z,24.14
2017-05-21T06:50:31.189Z,24.18
2017-05-21T06:51:41.728Z,24.21
2017-05-21T06:52:51.706Z,24.16
2017-05-21T06:54:02.007Z,24.13
2017-05-21T06:55:12.309Z,24.21
2017-05-21T06:56:22.024Z,24.14
2017-05-21T06:57:32.560Z,24.25
2017-05-21T06:58:42.849Z,24.16
2017-05-21T06:59:52.821Z,24.11
2017-05-21T07:01:03.100Z,24.14
2017-05-21T07:02:13.099Z,24.22
2017-05-21T07:03:23.641Z,24.26
2017-05-21T07:04:33.922Z,24.21
2017-05-21T07:05:44.200Z,24.22
2017-05-21T07:06:54.177Z,24.21
2017-05-21T07:08:04.469Z,24.21
2017-05-21T07:09:14.385Z,24.18
2017-05-21T07:10:24.683Z,24.22
2017-05-21T07:11:34.960Z,24.19
2017-05-21T07:12:44.939Z,24.29
2017-05-21T07:13:55.227Z,24.24
2017-05-21T07:15:05.795Z,24.24
2017-05-21T07:16:16.090Z,24.16
2017-05-21T07:17:26.431Z,24.24
2017-05-21T07:18:36.417Z,24.1
2017-05-21T07:19:46.719Z,24.19
2017-05-21T07:20:56.937Z,24.19
2017-05-21T07:22:07.232Z,24.25
2017-05-21T07:23:17.208Z,24.14
2017-05-21T07:24:27.500Z,24.18
2017-05-21T07:25:37.786Z,24.21
2017-05-21T07:26:48.004Z,24.21
2017-05-21T07:27:58.284Z,24.16
2017-05-21T07:29:08.576Z,24.19
2017-05-21T07:30:18.866Z,24.21
2017-05-21T07:31:29.147Z,24.18
2017-05-21T07:32:39.386Z,24.18
2017-05-21T07:33:49.672Z,24.26
2017-05-21T07:34:59.364Z,24.18
2017-05-21T07:36:09.650Z,24.16
2017-05-21T07:37:19.628Z,24.21
2017-05-21T07:38:30.167Z,24.14
2017-05-21T07:39:40.449Z,24.31
2017-05-21T07:40:50.742Z,24.22
2017-05-21T07:42:01.026Z,24.13
2017-05-21T07:43:11.335Z,24.18
2017-05-21T07:44:21.877Z,24.31
2017-05-21T07:45:32.173Z,24.21
2017-05-21T07:46:41.838Z,24.18
2017-05-21T07:47:51.832Z,24.24
2017-05-21T07:49:01.825Z,24.25
2017-05-21T07:50:12.359Z,24.19
2017-05-21T07:51:22.631Z,24.21
2017-05-21T07:52:32.924Z,24.21
2017-05-21T07:53:42.898Z,24.24
2017-05-21T07:54:52.875Z,24.18
2017-05-21T07:56:03.418Z,24.19
2017-05-21T07:57:13.703Z,24.19
2017-05-21T07:58:23.994Z,24.21
2017-05-21T07:59:34.276Z,24.21
2017-05-21T08:00:44.553Z,24.26
2017-05-21T08:01:54.789Z,24.19
2017-05-21T08:03:05.071Z,24.24
2017-05-21T08:04:15.365Z,24.19
2017-05-21T08:05:25.648Z,24.26
2017-05-21T08:06:35.929Z,24.21
2017-05-21T08:07:46.464Z,24.28
2017-05-21T08:08:56.752Z,24.18
2017-05-21T08:10:07.034Z,24.28
2017-05-21T08:11:16.707Z,24.21
2017-05-21T08:12:26.995Z,24.21
2017-05-21T08:13:36.909Z,24.19
2017-05-21T08:14:47.203Z,24.25
2017-05-21T08:15:56.868Z,24.25
2017-05-21T08:17:07.161Z,24.26
2017-05-21T08:18:17.470Z,24.18
2017-05-21T08:19:27.729Z,24.21
2017-05-21T08:20:38.018Z,24.19
2017-05-21T08:21:48.062Z,24.21
2017-05-21T08:22:58.346Z,24.24
2017-05-21T08:24:08.331Z,24.21
2017-05-21T08:25:18.552Z,24.28
2017-05-21T08:26:28.833Z,24.28
2017-05-21T08:27:39.128Z,24.21
2017-05-21T08:28:49.432Z,24.21
2017-05-21T08:29:59.720Z,24.22
2017-05-21T08:31:10.270Z,24.25
2017-05-21T08:32:20.607Z,24.24
2017-05-21T08:33:29.969Z,24.16
2017-05-21T08:34:40.270Z,24.22
2017-05-21T08:35:50.548Z,24.21
2017-05-21T08:37:01.090Z,24.28
2017-05-21T08:38:11.389Z,24.24
2017-05-21T08:39:21.360Z,24.24
2017-05-21T08:40:31.346Z,24.18
2017-05-21T08:41:41.007Z,24.19
2017-05-21T08:42:51.551Z,24.25
2017-05-21T08:44:01.532Z,24.29
2017-05-21T08:45:11.845Z,24.25
2017-05-21T08:46:22.119Z,24.22
2017-05-21T08:47:32.416Z,24.19
2017-05-21T08:48:42.963Z,24.19
2017-05-21T08:49:52.948Z,24.16
2017-05-21T08:51:03.248Z,24.24
2017-05-21T08:52:13.549Z,24.18
2017-05-21T08:53:23.518Z,24.21
2017-05-21T08:54:33.745Z,24.22
2017-05-21T08:55:44.039Z,24.24
2017-05-21T08:56:54.342Z,24.21
2017-05-21T08:58:04.625Z,24.21
2017-05-21T08:59:14.920Z,24.21
2017-05-21T09:00:25.466Z,24.19
2017-05-21T09:01:35.741Z,24.28
2017-05-21T09:02:46.038Z,24.22
2017-05-21T09:03:56.335Z,24.21
2017-05-21T09:05:06.630Z,24.19
2017-05-21T09:06:17.167Z,24.22
2017-05-21T09:07:27.450Z,24.26
2017-05-21T09:08:37.109Z,24.21
2017-05-21T09:09:47.401Z,24.22
2017-05-21T09:10:57.686Z,24.18
2017-05-21T09:12:08.227Z,24.24
2017-05-21T09:13:17.886Z,24.19
2017-05-21T09:14:27.899Z,24.26
2017-05-21T09:15:38.187Z,24.19
2017-05-21T09:16:48.484Z,24.19
2017-05-21T09:17:59.023Z,24.21
2017-05-21T09:19:09.316Z,24.19
2017-05-21T09:20:19.610Z,24.19
2017-05-21T09:21:29.894Z,24.21
2017-05-21T09:22:40.196Z,24.19
2017-05-21T09:23:50.747Z,24.21
2017-05-21T09:25:00.724Z,24.19
2017-05-21T09:26:10.704Z,24.25
2017-05-21T09:27:20.988Z,24.22
2017-05-21T09:28:31.285Z,24.16
2017-05-21T09:29:41.517Z,24.19
2017-05-21T09:30:51.818Z,24.18
2017-05-21T09:32:02.098Z,24.26
2017-05-21T09:33:12.388Z,24.22
2017-05-21T09:34:22.688Z,24.21
2017-05-21T09:35:33.230Z,24.14
2017-05-21T09:36:43.513Z,24.22
2017-05-21T09:37:53.481Z,24.18
2017-05-21T09:39:03.769Z,24.19
2017-05-21T09:40:14.048Z,24.21
2017-05-21T09:41:24.277Z,24.22
2017-05-21T09:42:34.562Z,24.21
2017-05-21T09:43:44.240Z,24.21
2017-05-21T09:44:54.533Z,24.25
2017-05-21T09:46:04.512Z,24.14
2017-05-21T09:47:14.738Z,24.14
2017-05-21T09:48:25.024Z,24.24
2017-05-21T09:49:35.307Z,24.21
2017-05-21T09:50:45.591Z,24.1
2017-05-21T09:51:55.866Z,24.13
2017-05-21T09:53:05.778Z,24.14
2017-05-21T09:54:16.087Z,24.1
2017-05-21T09:55:26.051Z,24.21
2017-05-21T09:56:36.337Z,24.13
2017-05-21T09:57:46.634Z,24.13
2017-05-21T09:58:57.184Z,24.11
2017-05-21T10:00:06.842Z,24.16
2017-05-21T10:01:17.129Z,24.13
2017-05-21T10:02:27.096Z,24.1
2017-05-21T10:03:37.404Z,24.13
2017-05-21T10:04:47.629Z,24.16
2017-05-21T10:05:57.913Z,24.19
2017-05-21T10:07:08.198Z,24.19
2017-05-21T10:08:18.183Z,24.21
2017-05-21T10:09:28.516Z,24.16
2017-05-21T10:10:39.063Z,24.21
2017-05-21T10:11:49.035Z,24.16
2017-05-21T10:12:59.063Z,24.14
2017-05-21T10:14:08.728Z,24.18
2017-05-21T10:15:19.002Z,24.19
2017-05-21T10:16:29.229Z,24.19
2017-05-21T10:17:39.219Z,24.19
2017-05-21T10:18:49.502Z,24.18
2017-05-21T10:19:59.486Z,24.21
2017-05-21T10:21:09.773Z,24.18
2017-05-21T10:22:20.312Z,24.18
2017-05-21T10:23:30.301Z,24.19
2017-05-21T10:24:40.598Z,24.16
2017-05-21T10:25:50.879Z,24.19
2017-05-21T10:27:00.850Z,24.18
2017-05-21T10:28:11.111Z,24.25
2017-05-21T10:29:21.101Z,24.16
2017-05-21T10:30:31.454Z,24.14
2017-05-21T10:31:41.744Z,24.24
2017-05-21T10:32:52.047Z,24.21
2017-05-21T10:34:02.581Z,24.21
2017-05-21T10:35:12.888Z,24.18
2017-05-21T10:36:22.573Z,24.25
2017-05-21T10:37:32.561Z,24.21
2017-05-21T10:38:42.290Z,24.18
2017-05-21T10:39:52.848Z,24.24
2017-05-21T10:41:03.155Z,24.22
2017-05-21T10:42:13.460Z,24.22
2017-05-21T10:43:23.751Z,24.21
2017-05-21T10:44:34.054Z,24.14
2017-05-21T10:45:44.604Z,24.19
2017-05-21T10:46:54.881Z,24.19
2017-05-21T10:48:05.165Z,24.28
2017-05-21T10:49:15.456Z,24.26
2017-05-21T10:50:25.438Z,24.25
2017-05-21T10:51:35.965Z,24.16
2017-05-21T10:52:45.946Z,24.18
2017-05-21T10:53:55.929Z,24.22
2017-05-21T10:55:05.612Z,24.18
2017-05-21T10:56:15.905Z,24.21
2017-05-21T10:57:26.122Z,24.19
2017-05-21T10:58:36.090Z,24.24
2017-05-21T10:59:46.069Z,24.22
2017-05-21T11:00:56.410Z,24.14
2017-05-21T11:02:06.698Z,24.22
2017-05-21T11:03:17.232Z,24.19
2017-05-21T11:04:27.518Z,24.18
2017-05-21T11:05:37.825Z,24.16
2017-05-21T11:06:48.112Z,24.28
2017-05-21T11:07:58.393Z,24.16
2017-05-21T11:09:08.937Z,24.16
2017-05-21T11:10:18.926Z,24.19
2017-05-21T11:11:28.901Z,24.25
2017-05-21T11:12:39.182Z,24.22
2017-05-21T11:13:49.488Z,24.22
2017-05-21T11:15:00.035Z,24.19
2017-05-21T11:16:10.333Z,24.18
2017-05-21T11:17:20.641Z,24.22
2017-05-21T11:18:30.934Z,24.22
2017-05-21T11:19:41.221Z,24.16
2017-05-21T11:20:51.438Z,24.24
2017-05-21T11:22:01.727Z,24.24
2017-05-21T11:23:12.009Z,24.28
2017-05-21T11:24:22.311Z,24.16
2017-05-21T11:25:32.608Z,24.16
2017-05-21T11:26:43.145Z,24.21
2017-05-21T11:27:53.438Z,24.18
2017-05-21T11:29:03.425Z,24.16
2017-05-21T11:30:13.419Z,24.19
2017-05-21T11:31:23.696Z,24.24
2017-05-21T11:32:33.918Z,24.21
2017-05-21T11:33:43.894Z,24.16
2017-05-21T11:34:53.553Z,24.19
2017-05-21T11:36:03.838Z,24.24
2017-05-21T11:37:14.125Z,24.21
2017-05-21T11:38:24.666Z,24.24
2017-05-21T11:39:34.970Z,24.19
2017-05-21T11:40:45.354Z,24.19
2017-05-21T11:41:55.013Z,24.19
2017-05-21T11:43:04.977Z,24.24
2017-05-21T11:44:15.217Z,24.19
2017-05-21T11:45:25.519Z,24.24
2017-05-21T11:46:35.494Z,24.22
2017-05-21T11:47:45.482Z,24.16
2017-05-21T11:48:55.769Z,24.19
2017-05-21T11:50:06.317Z,24.18
2017-05-21T11:51:16.597Z,24.19
2017-05-21T11:52:26.886Z,24.25
2017-05-21T11:53:37.182Z,24.28
2017-05-21T11:54:47.534Z,24.26
2017-05-21T11:55:58.076Z,24.18
2017-05-21T11:57:08.358Z,24.19
2017-05-21T11:58:18.328Z,24.18
2017-05-21T11:59:28.334Z,24.19
2017-05-21T12:00:38.299Z,24.25
2017-05-21T12:01:48.216Z,24.26
2017-05-21T12:02:57.891Z,24.19
2017-05-21T12:04:08.171Z,24.19
2017-05-21T12:05:18.158Z,24.16
2017-05-21T12:06:28.527Z,24.18
2017-05-21T12:07:39.061Z,24.16
2017-05-21T12:08:49.049Z,24.16
2017-05-21T12:09:59.354Z,24.29
2017-05-21T12:11:09.333Z,24.22
2017-05-21T12:12:19.636Z,24.21
2017-05-21T12:13:30.168Z,24.19
2017-05-21T12:14:40.139Z,24.18
2017-05-21T12:15:50.137Z,24.18
2017-05-21T12:17:00.423Z,24.21
2017-05-21T12:18:10.407Z,24.22
2017-05-21T12:19:20.956Z,24.22
2017-05-21T12:20:31.244Z,24.22
2017-05-21T12:21:41.525Z,24.22
2017-05-21T12:22:51.817Z,24.19
2017-05-21T12:24:02.116Z,24.19
2017-05-21T12:25:12.649Z,24.19
2017-05-21T12:26:22.963Z,24.22
2017-05-21T12:27:32.693Z,24.19
2017-05-21T12:28:42.668Z,24.16
2017-05-21T12:29:52.967Z,24.26
2017-05-21T12:31:03.508Z,24.14
2017-05-21T12:32:13.803Z,24.18
2017-05-21T12:33:23.772Z,24.16
2017-05-21T12:34:34.077Z,24.19
2017-05-21T12:35:44.383Z,24.26
2017-05-21T12:36:54.604Z,24.29
2017-05-21T12:38:04.269Z,24.19
2017-05-21T12:39:14.573Z,24.19
2017-05-21T12:40:24.879Z,24.24
2017-05-21T12:41:35.198Z,24.21
2017-05-21T12:42:45.424Z,24.25
2017-05-21T12:43:55.403Z,24.24
2017-05-21T12:45:05.695Z,24.16
2017-05-21T12:46:15.997Z,24.29
2017-05-21T12:47:25.976Z,24.25
2017-05-21T12:48:36.519Z,24.24
2017-05-21T12:49:46.508Z,24.31
2017-05-21T12:50:56.500Z,24.22
2017-05-21T12:52:06.787Z,24.26
2017-05-21T12:53:17.078Z,24.13
2017-05-21T12:54:27.315Z,24.28
2017-05-21T12:55:37.608Z,24.28
2017-05-21T12:56:47.890Z,24.24
2017-05-21T12:57:58.177Z,24.21
2017-05-21T12:59:08.481Z,24.25
2017-05-21T13:00:19.014Z,24.21
2017-05-21T13:01:29.004Z,24.31
2017-05-21T13:02:39.308Z,24.29
2017-05-21T13:03:49.603Z,24.24
2017-05-21T13:04:59.584Z,24.22
2017-05-21T13:06:10.128Z,24.21
2017-05-21T13:07:19.794Z,24.28
2017-05-21T13:08:30.098Z,24.32
2017-05-21T13:09:39.764Z,24.19
2017-05-21T13:10:49.765Z,24.22
2017-05-21T13:12:00.001Z,24.19
2017-05-21T13:13:10.300Z,24.28
2017-05-21T13:14:20.281Z,24.26
2017-05-21T13:15:30.574Z,24.26
2017-05-21T13:16:40.862Z,24.21
2017-05-21T13:17:51.398Z,24.21
2017-05-21T13:19:01.695Z,24.26
2017-05-21T13:20:12.000Z,24.22
2017-05-21T13:21:21.980Z,24.19
2017-05-21T13:22:32.265Z,24.22
2017-05-21T13:23:43.249Z,24.18
2017-05-21T13:24:53.527Z,24.21
2017-05-21T13:26:03.837Z,24.22
2017-05-21T13:27:12.886Z,24.25
2017-05-21T13:28:22.887Z,24.25
2017-05-21T13:29:33.119Z,24.21
2017-05-21T13:30:43.426Z,24.22
2017-05-21T13:31:53.738Z,24.21
2017-05-21T13:33:04.034Z,24.28
2017-05-21T13:34:14.322Z,24.24
2017-05-21T13:35:24.859Z,24.24
2017-05-21T13:36:35.149Z,24.28
2017-05-21T13:37:45.441Z,24.24
2017-05-21T13:38:55.726Z,24.24
2017-05-21T13:40:06.024Z,24.28
2017-05-21T13:41:16.574Z,24.25
2017-05-21T13:42:26.555Z,24.26
2017-05-21T13:43:36.538Z,24.31
2017-05-21T13:44:46.526Z,24.25
2017-05-21T13:45:56.811Z,24.24
2017-05-21T13:47:07.348Z,24.21
2017-05-21T13:48:17.323Z,24.22
2017-05-21T13:49:27.303Z,24.28
2017-05-21T13:50:37.595Z,24.24
2017-05-21T13:51:47.876Z,24.22
2017-05-21T13:52:58.105Z,24.18
2017-05-21T13:54:08.402Z,24.26
2017-05-21T13:55:18.075Z,24.26
2017-05-21T13:56:28.375Z,24.28
2017-05-21T13:57:38.362Z,24.22
2017-05-21T13:58:48.585Z,24.25
2017-05-21T13:59:58.878Z,24.18
2017-05-21T14:01:09.182Z,24.25
2017-05-21T14:02:19.167Z,24.37
2017-05-21T14:03:29.476Z,24.21
2017-05-21T14:04:40.009Z,24.19
2017-05-21T14:05:50.299Z,24.22
2017-05-21T14:07:00.647Z,24.24
2017-05-21T14:08:10.620Z,24.31
2017-05-21T14:09:20.918Z,24.22
2017-05-21T14:10:31.467Z,24.25
2017-05-21T14:11:41.433Z,24.24
2017-05-21T14:12:51.402Z,24.25
2017-05-21T14:14:01.383Z,24.32
2017-05-21T14:15:11.673Z,24.22
2017-05-21T14:16:22.229Z,24.29
2017-05-21T14:17:32.196Z,24.24
2017-05-21T14:18:42.513Z,24.24
2017-05-21T14:19:52.495Z,24.26
2017-05-21T14:21:02.787Z,24.22
2017-05-21T14:22:13.338Z,24.24
2017-05-21T14:23:23.009Z,24.18
2017-05-21T14:24:33.293Z,24.24
2017-05-21T14:25:43.582Z,24.22
2017-05-21T14:26:53.922Z,24.22
2017-05-21T14:28:04.161Z,24.22
2017-05-21T14:29:14.488Z,24.25
2017-05-21T14:30:24.470Z,24.32
2017-05-21T14:31:34.129Z,24.28
2017-05-21T14:32:44.444Z,24.19
2017-05-21T14:33:54.993Z,24.24
2017-05-21T14:35:04.967Z,24.26
2017-05-21T14:36:15.269Z,24.21
2017-05-21T14:37:25.277Z,24.24
2017-05-21T14:38:35.557Z,24.21
2017-05-21T14:39:45.788Z,24.24
2017-05-21T14:40:55.780Z,24.18
2017-05-21T14:42:06.070Z,24.14
2017-05-21T14:43:16.351Z,24.22
2017-05-21T14:44:26.012Z,24.24
2017-05-21T14:45:36.549Z,24.18
2017-05-21T14:46:46.850Z,24.21
2017-05-21T14:47:56.260Z,24.26
2017-05-21T14:49:06.251Z,24.19
2017-05-21T14:50:16.539Z,24.18
2017-05-21T14:51:27.067Z,24.19
2017-05-21T14:52:37.038Z,24.31
2017-05-21T14:53:47.031Z,24.28
2017-05-21T14:54:57.320Z,24.25
2017-05-21T14:56:07.611Z,24.29
2017-05-21T14:57:18.156Z,24.21
2017-05-21T14:58:28.142Z,24.19
2017-05-21T14:59:37.803Z,24.19
2017-05-21T15:00:47.786Z,24.24
2017-05-21T15:01:58.130Z,24.22
2017-05-21T15:03:08.679Z,24.11
2017-05-21T15:04:18.964Z,24.18
2017-05-21T15:05:28.940Z,24.24